Time;durP1;ratioP1;P1;durP2;ratioP2;P2;SDS_P1;SDS_P2;PMS_P1;PMS_P2;Temp;Humidity;BMP_temperature;BMP_pressure;BME280_temperature;BME280_humidity;BME280_pressure;Samples;Min_cycle;Max_cycle;Signal;HPM_P1;HPM_P2
2024/04/20 00:00:30;;;;;;;1.63;1.00;;;7.10;99.90;;;;;;5335507;26;20012;-61
2024/04/20 00:02:57;;;;;;;4.90;1.30;;;7.10;99.90;;;;;;5332360;26;20001;-61
2024/04/20 00:05:24;;;;;;;3.33;1.42;;;7.10;99.90;;;;;;5333153;26;20005;-61
2024/04/20 00:07:51;;;;;;;6.82;1.80;;;6.90;99.90;;;;;;5333922;26;20405;-61
2024/04/20 00:10:18;;;;;;;3.22;1.65;;;6.90;99.90;;;;;;5336956;26;20028;-61
2024/04/20 00:12:45;;;;;;;6.18;2.50;;;7.00;99.90;;;;;;5337037;26;20017;-61
2024/04/20 00:15:12;;;;;;;4.85;2.33;;;7.00;99.90;;;;;;5338245;26;20083;-62
2024/04/20 00:17:39;;;;;;;8.00;2.95;;;7.00;99.90;;;;;;5332759;26;20567;-60
2024/04/20 00:20:06;;;;;;;4.22;1.77;;;7.00;99.90;;;;;;5332242;26;20013;-61
2024/04/20 00:22:33;;;;;;;3.63;1.65;;;6.90;99.90;;;;;;5335077;26;20020;-60
2024/04/20 00:25:00;;;;;;;3.50;1.60;;;6.80;99.90;;;;;;5339289;26;20016;-61
2024/04/20 00:27:28;;;;;;;3.85;1.40;;;6.90;99.90;;;;;;5335298;26;20013;-61
2024/04/20 00:29:55;;;;;;;1.67;1.30;;;6.90;99.90;;;;;;5335328;26;20001;-62
2024/04/20 00:32:22;;;;;;;3.45;1.48;;;6.90;99.90;;;;;;5333152;26;20090;-61
2024/04/20 00:34:48;;;;;;;4.47;1.70;;;7.00;99.90;;;;;;5333236;26;20459;-61
2024/04/20 00:37:15;;;;;;;3.05;1.70;;;7.00;99.90;;;;;;5336481;26;20690;-61
2024/04/20 00:39:42;;;;;;;2.92;1.52;;;6.90;99.90;;;;;;5336112;26;20005;-62
2024/04/20 00:42:09;;;;;;;3.20;1.42;;;6.90;99.90;;;;;;5332668;26;20033;-61
2024/04/20 00:44:36;;;;;;;3.03;1.55;;;6.90;99.90;;;;;;5333600;26;20341;-61
2024/04/20 00:47:05;;;;;;;2.55;1.58;;;6.90;99.90;;;;;;5331638;26;20018;-61
2024/04/20 00:49:33;;;;;;;7.15;1.48;;;6.90;99.90;;;;;;5334219;26;20460;-60
2024/04/20 00:52:03;;;;;;;3.45;1.27;;;6.90;99.90;;;;;;5334859;26;20009;-62
2024/04/20 00:54:31;;;;;;;2.42;1.40;;;6.90;99.90;;;;;;5332416;26;20013;-61
2024/04/20 00:56:59;;;;;;;3.53;1.40;;;6.90;99.90;;;;;;5335557;26;20005;-60
2024/04/20 00:59:27;;;;;;;4.97;1.35;;;6.80;99.90;;;;;;5330351;26;20011;-61
2024/04/20 01:01:53;;;;;;;1.55;1.20;;;6.80;99.90;;;;;;5334377;26;20016;-61
2024/04/20 01:04:20;;;;;;;1.65;1.50;;;6.80;99.90;;;;;;5337475;26;20401;-62
2024/04/20 01:06:47;;;;;;;6.57;1.70;;;6.70;99.90;;;;;;5336064;26;20025;-61
2024/04/20 01:09:14;;;;;;;4.90;1.75;;;6.70;99.90;;;;;;5333805;26;20050;-61
2024/04/20 01:11:41;;;;;;;3.55;1.88;;;6.70;99.90;;;;;;5333025;26;20010;-61
2024/04/20 01:14:10;;;;;;;2.47;1.88;;;6.70;99.90;;;;;;5336549;26;20015;-61
2024/04/20 01:16:37;;;;;;;1.77;1.42;;;6.60;99.90;;;;;;5338250;26;20674;-60
2024/04/20 01:19:05;;;;;;;2.28;1.67;;;6.60;99.90;;;;;;5338311;26;20008;-61
2024/04/20 01:21:32;;;;;;;3.95;1.83;;;6.60;99.90;;;;;;5341189;26;20016;-60
2024/04/20 01:24:01;;;;;;;2.83;1.90;;;6.60;99.90;;;;;;5332202;26;20450;-61
2024/04/20 01:26:28;;;;;;;2.60;1.98;;;6.50;99.90;;;;;;5339422;26;20001;-60
2024/04/20 01:28:54;;;;;;;3.58;1.90;;;6.50;99.90;;;;;;5335369;26;20002;-60
2024/04/20 01:31:21;;;;;;;2.97;1.80;;;6.50;99.90;;;;;;5338746;26;20452;-61
2024/04/20 01:33:48;;;;;;;4.68;2.25;;;6.50;99.90;;;;;;5339222;26;20048;-61
2024/04/20 01:36:15;;;;;;;3.95;2.03;;;6.60;99.90;;;;;;5338309;26;20005;-61
2024/04/20 01:38:42;;;;;;;2.95;1.50;;;6.60;99.90;;;;;;5336039;26;20720;-61
2024/04/20 01:41:09;;;;;;;5.47;2.00;;;6.70;99.90;;;;;;5337474;26;20005;-59
2024/04/20 01:43:36;;;;;;;5.65;2.55;;;6.70;99.90;;;;;;5338033;26;20366;-59
2024/04/20 01:46:02;;;;;;;4.10;1.90;;;6.80;99.90;;;;;;5336943;26;20499;-60
2024/04/20 01:48:29;;;;;;;1.92;1.63;;;6.80;99.90;;;;;;5331479;26;20004;-61
2024/04/20 01:50:56;;;;;;;2.90;1.60;;;6.70;99.90;;;;;;5338710;26;20009;-60
2024/04/20 01:53:23;;;;;;;4.70;1.50;;;6.60;99.90;;;;;;5333430;26;20098;-61
2024/04/20 01:55:50;;;;;;;2.33;1.60;;;6.50;99.90;;;;;;5337354;26;20658;-58
2024/04/20 01:58:17;;;;;;;2.63;1.90;;;6.40;99.90;;;;;;5339410;26;20534;-59
2024/04/20 02:00:44;;;;;;;2.90;2.17;;;6.30;99.90;;;;;;5339776;26;20017;-61
2024/04/20 02:03:13;;;;;;;3.75;2.15;;;6.20;99.90;;;;;;5336845;26;20424;-61
2024/04/20 02:05:41;;;;;;;4.38;2.50;;;6.00;99.90;;;;;;5335725;26;20015;-60
2024/04/20 02:08:08;;;;;;;5.45;2.47;;;5.90;99.90;;;;;;5336009;26;20013;-61
2024/04/20 02:10:35;;;;;;;5.82;2.40;;;5.80;99.90;;;;;;5326997;26;20020;-60
2024/04/20 02:13:02;;;;;;;4.72;1.85;;;5.70;99.90;;;;;;5336638;26;20005;-59
2024/04/20 02:15:29;;;;;;;3.47;2.58;;;5.50;99.90;;;;;;5334680;26;20001;-62
2024/04/20 02:17:56;;;;;;;5.90;2.20;;;5.40;99.90;;;;;;5333299;26;20619;-61
2024/04/20 02:20:23;;;;;;;4.15;2.50;;;5.40;99.90;;;;;;5337101;26;20023;-61
2024/04/20 02:22:50;;;;;;;3.97;2.65;;;5.30;99.90;;;;;;5334217;26;20408;-61
2024/04/20 02:25:17;;;;;;;4.68;2.47;;;5.30;99.90;;;;;;5337536;26;20001;-61
2024/04/20 02:27:44;;;;;;;6.35;2.40;;;5.40;99.90;;;;;;5335715;26;20011;-60
2024/04/20 02:30:11;;;;;;;6.32;2.85;;;5.40;99.90;;;;;;5333757;26;20023;-59
2024/04/20 02:32:38;;;;;;;5.40;2.53;;;5.40;99.90;;;;;;5333463;26;20001;-59
2024/04/20 02:35:05;;;;;;;6.57;2.70;;;5.40;99.90;;;;;;5325089;26;20024;-60
2024/04/20 02:37:32;;;;;;;4.82;2.20;;;5.40;99.90;;;;;;5336459;26;20008;-58
2024/04/20 02:39:59;;;;;;;7.30;2.58;;;5.40;99.90;;;;;;5335775;26;20023;-58
2024/04/20 02:42:26;;;;;;;5.70;2.28;;;5.40;99.90;;;;;;5336682;26;20020;-60
2024/04/20 02:44:53;;;;;;;5.72;1.98;;;5.30;99.90;;;;;;5334896;26;20345;-56
2024/04/20 02:47:19;;;;;;;4.05;2.50;;;5.30;99.90;;;;;;5339173;26;20005;-58
2024/04/20 02:49:48;;;;;;;4.10;2.13;;;5.40;99.90;;;;;;5334724;26;20016;-56
2024/04/20 02:52:15;;;;;;;6.35;2.75;;;5.40;99.90;;;;;;5336059;26;20500;-55
2024/04/20 02:54:41;;;;;;;5.32;2.80;;;5.40;99.90;;;;;;5329250;26;20009;-60
2024/04/20 02:57:08;;;;;;;6.15;2.85;;;5.60;99.90;;;;;;5335963;26;20078;-60
2024/04/20 02:59:35;;;;;;;4.70;2.30;;;5.60;99.90;;;;;;5335741;26;20005;-59
2024/04/20 03:02:02;;;;;;;5.32;2.10;;;5.60;99.90;;;;;;5338562;26;20524;-60
2024/04/20 03:04:29;;;;;;;3.78;2.30;;;5.70;99.90;;;;;;5332327;26;20016;-61
2024/04/20 03:06:56;;;;;;;9.18;2.97;;;5.70;99.90;;;;;;5339673;26;20505;-59
2024/04/20 03:09:23;;;;;;;8.65;3.40;;;5.70;99.90;;;;;;5330740;26;20013;-61
2024/04/20 03:11:50;;;;;;;6.28;2.47;;;5.80;99.90;;;;;;5338537;26;20871;-61
2024/04/20 03:14:17;;;;;;;8.20;2.40;;;5.90;99.90;;;;;;5336561;26;20399;-61
2024/04/20 03:16:46;;;;;;;5.10;2.17;;;5.90;99.90;;;;;;5337014;26;20016;-61
2024/04/20 03:19:12;;;;;;;7.50;2.17;;;6.00;99.90;;;;;;5333074;26;20009;-59
2024/04/20 03:21:39;;;;;;;6.55;2.53;;;6.00;99.90;;;;;;5339791;26;20021;-61
2024/04/20 03:24:06;;;;;;;7.50;2.50;;;6.10;99.90;;;;;;5337893;26;20009;-61
2024/04/20 03:26:33;;;;;;;5.70;2.75;;;6.10;99.90;;;;;;5338232;26;20033;-59
2024/04/20 03:29:00;;;;;;;7.30;2.55;;;6.10;99.90;;;;;;5336991;26;20005;-58
2024/04/20 03:31:26;;;;;;;6.00;2.50;;;6.20;99.90;;;;;;5335056;26;20335;-61
2024/04/20 03:34:00;;;;;;;7.60;2.35;;;6.20;99.90;;;;;;5333471;26;20083;-60
2024/04/20 03:36:27;;;;;;;10.52;2.38;;;6.20;99.90;;;;;;5334833;26;20479;-59
2024/04/20 03:38:54;;;;;;;8.75;2.38;;;6.20;99.90;;;;;;5335194;26;20013;-60
2024/04/20 03:41:21;;;;;;;6.75;2.30;;;6.20;99.90;;;;;;5330775;26;20001;-60
2024/04/20 03:43:48;;;;;;;6.82;2.72;;;6.20;99.90;;;;;;5333583;26;20474;-61
2024/04/20 03:46:15;;;;;;;7.05;2.20;;;6.30;99.90;;;;;;5336198;26;20001;-61
2024/04/20 03:48:42;;;;;;;10.15;2.40;;;6.20;99.90;;;;;;5337023;26;20024;-60
2024/04/20 03:51:08;;;;;;;6.97;2.55;;;6.20;99.90;;;;;;5335095;26;20061;-60
2024/04/20 03:53:35;;;;;;;3.97;2.05;;;6.20;99.90;;;;;;5335673;26;20372;-61
2024/04/20 03:56:02;;;;;;;6.95;2.47;;;6.20;99.90;;;;;;5330595;26;20016;-61
2024/04/20 03:58:29;;;;;;;6.97;2.10;;;6.20;99.90;;;;;;5333681;26;20009;-60
2024/04/20 04:00:56;;;;;;;9.15;2.90;;;6.20;99.90;;;;;;5334567;26;20001;-61
2024/04/20 04:03:24;;;;;;;8.57;3.85;;;6.20;99.90;;;;;;5333364;26;20074;-61
2024/04/20 04:05:51;;;;;;;14.07;4.93;;;6.20;99.90;;;;;;5334881;26;20000;-61
2024/04/20 04:08:18;;;;;;;12.05;4.43;;;6.20;99.90;;;;;;5332282;26;19997;-60
2024/04/20 04:10:45;;;;;;;6.95;2.80;;;6.20;99.90;;;;;;5334624;26;20091;-60
2024/04/20 04:13:16;;;;;;;8.00;3.47;;;6.20;99.90;;;;;;5334889;26;20012;-61
2024/04/20 04:15:44;;;;;;;12.20;4.20;;;6.20;99.90;;;;;;5334460;26;20005;-60
2024/04/20 04:18:11;;;;;;;12.70;4.40;;;6.20;99.90;;;;;;5332016;26;20013;-60
2024/04/20 04:20:38;;;;;;;7.55;3.22;;;6.20;99.90;;;;;;5329256;26;20644;-61
2024/04/20 04:23:05;;;;;;;8.98;2.72;;;6.20;99.90;;;;;;5328573;26;20036;-60
2024/04/20 04:25:35;;;;;;;5.63;2.20;;;6.10;99.90;;;;;;5333827;26;20015;-59
2024/04/20 04:28:02;;;;;;;7.82;2.03;;;6.10;99.90;;;;;;5336741;26;20330;-59
2024/04/20 04:30:29;;;;;;;3.85;2.22;;;6.10;99.90;;;;;;5324863;26;20472;-61
2024/04/20 04:32:56;;;;;;;5.95;2.22;;;6.20;99.90;;;;;;5336177;26;20017;-60
2024/04/20 04:35:26;;;;;;;7.28;2.20;;;6.20;99.90;;;;;;5335923;26;20015;-60
2024/04/20 04:37:53;;;;;;;4.80;2.25;;;6.20;99.90;;;;;;5337838;26;20001;-61
2024/04/20 04:40:20;;;;;;;6.55;2.30;;;6.20;99.90;;;;;;5334842;26;20400;-61
2024/04/20 04:42:51;;;;;;;6.75;1.88;;;6.30;99.90;;;;;;5331535;26;20000;-61
2024/04/20 04:45:18;;;;;;;8.90;2.20;;;6.30;99.90;;;;;;5334415;26;20533;-60
2024/04/20 04:47:44;;;;;;;7.30;2.35;;;6.30;99.90;;;;;;5338458;26;20005;-61
2024/04/20 04:50:11;;;;;;;9.07;2.80;;;6.30;99.90;;;;;;5325490;26;20769;-61
2024/04/20 04:52:38;;;;;;;10.75;2.25;;;6.30;99.90;;;;;;5336074;26;20052;-61
2024/04/20 04:55:05;;;;;;;12.05;2.47;;;6.30;99.90;;;;;;5335458;26;20009;-60
2024/04/20 04:57:32;;;;;;;4.72;2.40;;;6.30;99.90;;;;;;5335131;26;20001;-61
2024/04/20 04:59:59;;;;;;;6.07;2.35;;;6.30;99.90;;;;;;5333796;26;20009;-61
2024/04/20 05:02:26;;;;;;;8.63;2.92;;;6.40;99.90;;;;;;5333681;26;20001;-60
2024/04/20 05:04:53;;;;;;;6.65;2.20;;;6.30;99.90;;;;;;5335500;26;20009;-61
2024/04/20 05:07:20;;;;;;;9.48;2.47;;;6.40;99.90;;;;;;5333963;26;20341;-61
2024/04/20 05:09:47;;;;;;;7.85;2.30;;;6.40;99.90;;;;;;5336618;26;20015;-60
2024/04/20 05:12:13;;;;;;;6.80;2.65;;;6.40;99.90;;;;;;5330847;26;20005;-61
2024/04/20 05:14:41;;;;;;;8.70;1.92;;;6.50;99.90;;;;;;5331298;26;20009;-61
2024/04/20 05:17:07;;;;;;;6.07;1.92;;;6.50;99.90;;;;;;5326736;26;20331;-60
2024/04/20 05:19:34;;;;;;;7.97;2.60;;;6.50;99.90;;;;;;5333691;26;20052;-60
2024/04/20 05:22:01;;;;;;;7.93;2.00;;;6.60;99.90;;;;;;5333587;26;20001;-61
2024/04/20 05:24:28;;;;;;;7.57;1.95;;;6.60;99.90;;;;;;5333102;26;20005;-58
2024/04/20 05:26:55;;;;;;;9.75;1.95;;;6.60;99.90;;;;;;5335376;26;20036;-60
2024/04/20 05:29:22;;;;;;;9.70;2.00;;;6.60;99.90;;;;;;5333897;26;20013;-61
2024/04/20 05:31:49;;;;;;;11.25;2.10;;;6.60;99.90;;;;;;5334523;26;20016;-59
2024/04/20 05:34:15;;;;;;;6.30;2.10;;;6.60;99.90;;;;;;5334760;26;20331;-60
2024/04/20 05:36:43;;;;;;;9.43;2.03;;;6.70;99.90;;;;;;5330924;26;20005;-61
2024/04/20 05:39:10;;;;;;;9.18;2.00;;;6.70;99.90;;;;;;5330696;26;20005;-60
2024/04/20 05:41:37;;;;;;;8.05;2.53;;;6.70;99.90;;;;;;5324948;26;20021;-59
2024/04/20 05:44:03;;;;;;;6.70;2.55;;;6.70;99.90;;;;;;5331638;26;20005;-61
2024/04/20 05:46:32;;;;;;;7.13;2.22;;;6.70;99.90;;;;;;5333995;26;20484;-60
2024/04/20 05:48:59;;;;;;;6.95;2.75;;;6.80;99.90;;;;;;5333875;26;20437;-59
2024/04/20 05:51:26;;;;;;;5.55;2.60;;;6.80;99.90;;;;;;5333421;26;20013;-61
2024/04/20 05:53:53;;;;;;;10.18;3.70;;;6.80;99.90;;;;;;5329051;26;20021;-59
2024/04/20 05:56:20;;;;;;;12.32;3.13;;;6.90;99.90;;;;;;5324453;26;20013;-58
2024/04/20 05:58:46;;;;;;;4.20;2.80;;;6.90;99.90;;;;;;5336280;26;20647;-61
2024/04/20 06:01:15;;;;;;;8.40;2.42;;;6.70;99.90;;;;;;5338560;26;20005;-59
2024/04/20 06:03:42;;;;;;;5.32;1.85;;;6.80;99.90;;;;;;5333793;26;20040;-62
2024/04/20 06:06:09;;;;;;;4.75;2.00;;;6.70;99.90;;;;;;5322270;26;19997;-62
2024/04/20 06:08:36;;;;;;;13.10;2.50;;;6.70;99.90;;;;;;5323301;26;20020;-62
2024/04/20 06:11:04;;;;;;;14.15;3.08;;;6.70;99.90;;;;;;5323000;26;20055;-62
2024/04/20 06:13:32;;;;;;;6.20;2.40;;;6.70;99.90;;;;;;5323056;26;20019;-61
2024/04/20 06:15:59;;;;;;;7.43;2.67;;;6.70;99.90;;;;;;5359911;26;20539;-61
2024/04/20 06:18:26;;;;;;;7.10;2.40;;;6.70;99.90;;;;;;5330406;26;20001;-61
2024/04/20 06:20:52;;;;;;;8.77;2.53;;;6.70;99.90;;;;;;5328731;26;20008;-61
2024/04/20 06:23:19;;;;;;;8.88;2.40;;;6.70;99.90;;;;;;5328459;26;20001;-62
2024/04/20 06:25:49;;;;;;;7.63;2.85;;;6.60;99.90;;;;;;5331676;26;19997;-59
2024/04/20 06:28:16;;;;;;;10.43;2.65;;;6.70;99.90;;;;;;5334595;26;20016;-61
2024/04/20 06:30:45;;;;;;;6.35;2.40;;;6.60;99.90;;;;;;5330826;26;20079;-62
2024/04/20 06:33:11;;;;;;;10.90;3.10;;;6.70;99.90;;;;;;5329873;26;22026;-61
2024/04/20 06:35:38;;;;;;;9.23;2.50;;;6.70;99.90;;;;;;5325977;26;20051;-60
2024/04/20 06:38:05;;;;;;;13.27;3.50;;;6.70;99.90;;;;;;5331825;26;20013;-61
2024/04/20 06:40:35;;;;;;;14.82;2.83;;;6.60;99.90;;;;;;5331286;26;19997;-61
2024/04/20 06:43:02;;;;;;;6.15;2.10;;;6.60;99.90;;;;;;5330975;26;20713;-61
2024/04/20 06:45:29;;;;;;;9.23;2.70;;;6.30;99.90;;;;;;5329913;26;20012;-61
2024/04/20 06:47:57;;;;;;;7.25;2.40;;;6.40;99.90;;;;;;5330376;26;20055;-59
2024/04/20 06:50:24;;;;;;;10.93;3.10;;;6.40;99.90;;;;;;5330618;26;20041;-61
2024/04/20 06:52:51;;;;;;;6.72;2.35;;;6.40;99.90;;;;;;5329545;26;20075;-58
2024/04/20 06:55:18;;;;;;;8.60;2.50;;;6.30;99.90;;;;;;5331506;26;20004;-59
2024/04/20 06:57:44;;;;;;;7.40;2.72;;;6.30;99.90;;;;;;5327451;26;20528;-59
2024/04/20 07:00:12;;;;;;;8.20;2.90;;;6.30;99.90;;;;;;5331385;26;20033;-60
2024/04/20 07:02:39;;;;;;;8.98;3.28;;;6.30;99.90;;;;;;5328820;26;20477;-60
2024/04/20 07:05:06;;;;;;;13.07;3.30;;;6.40;99.90;;;;;;5336798;26;20004;-61
2024/04/20 07:07:34;;;;;;;12.13;3.13;;;6.50;99.90;;;;;;5342089;26;20024;-62
2024/04/20 07:10:02;;;;;;;9.45;3.22;;;6.60;99.90;;;;;;5337583;26;20004;-62
2024/04/20 07:12:29;;;;;;;9.10;2.92;;;6.80;99.90;;;;;;5345924;26;20467;-61
2024/04/20 07:14:56;;;;;;;8.63;2.80;;;6.90;99.90;;;;;;5342653;26;20019;-62
2024/04/20 07:17:22;;;;;;;9.48;3.13;;;6.90;99.90;;;;;;5329755;26;20020;-62
2024/04/20 07:19:49;;;;;;;9.27;2.55;;;6.90;99.90;;;;;;5339966;26;20697;-62
2024/04/20 07:22:17;;;;;;;4.40;2.33;;;7.00;99.90;;;;;;5335525;26;20094;-62
2024/04/20 07:24:44;;;;;;;11.15;2.85;;;7.00;99.90;;;;;;5335288;26;20012;-62
2024/04/20 07:27:11;;;;;;;11.02;3.15;;;7.10;99.90;;;;;;5332263;26;20009;-61
2024/04/20 07:29:38;;;;;;;4.47;2.08;;;7.20;99.90;;;;;;5334325;26;20016;-62
2024/04/20 07:32:05;;;;;;;7.65;2.67;;;7.20;99.90;;;;;;5336095;26;20336;-62
2024/04/20 07:34:32;;;;;;;8.70;2.83;;;7.10;99.90;;;;;;5329682;26;20012;-61
2024/04/20 07:36:59;;;;;;;6.45;3.03;;;6.90;99.90;;;;;;5335266;26;20330;-62
2024/04/20 07:39:26;;;;;;;7.70;2.60;;;6.80;99.90;;;;;;5331695;26;20096;-62
2024/04/20 07:41:53;;;;;;;8.90;2.50;;;6.90;99.90;;;;;;5334541;26;19998;-62
2024/04/20 07:44:21;;;;;;;5.60;2.50;;;6.90;99.90;;;;;;5328319;26;20468;-62
2024/04/20 07:47:02;;;;;;;7.10;2.47;;;6.90;99.90;;;;;;5349819;26;20020;-61
2024/04/20 07:49:36;;;;;;;3.92;1.98;;;6.80;99.90;;;;;;5342049;26;20020;-62
2024/04/20 07:52:04;;;;;;;5.88;2.00;;;6.80;99.90;;;;;;5330820;26;20082;-61
2024/04/20 07:54:31;;;;;;;6.80;2.00;;;6.90;99.90;;;;;;5330352;26;20009;-60
2024/04/20 07:56:58;;;;;;;8.32;2.38;;;7.00;99.90;;;;;;5329925;26;20531;-62
2024/04/20 07:59:25;;;;;;;4.85;2.40;;;7.40;99.90;;;;;;5332271;26;20473;-61
2024/04/20 08:01:51;;;;;;;7.95;2.88;;;7.60;99.90;;;;;;5327645;26;20009;-62
2024/04/20 08:04:19;;;;;;;4.70;1.98;;;7.70;99.90;;;;;;5328964;26;20050;-62
2024/04/20 08:06:46;;;;;;;8.27;2.58;;;7.80;99.90;;;;;;5330946;26;20030;-60
2024/04/20 08:09:13;;;;;;;3.75;1.83;;;8.00;99.90;;;;;;5323370;26;20033;-62
2024/04/20 08:11:42;;;;;;;4.75;2.10;;;8.20;99.90;;;;;;5326349;26;20079;-62
2024/04/20 08:14:09;;;;;;;5.82;2.00;;;8.30;99.90;;;;;;5326460;26;20023;-62
2024/04/20 08:16:36;;;;;;;5.35;2.60;;;8.30;99.90;;;;;;5325513;26;20319;-62
2024/04/20 08:19:04;;;;;;;6.25;2.35;;;8.30;99.90;;;;;;5332951;26;20017;-62
2024/04/20 08:21:31;;;;;;;7.20;2.42;;;8.40;99.90;;;;;;5335417;26;19997;-62
2024/04/20 08:23:59;;;;;;;6.20;2.38;;;8.50;99.90;;;;;;5325594;26;20020;-61
2024/04/20 08:26:26;;;;;;;6.22;2.03;;;8.50;99.90;;;;;;5331049;26;20453;-62
2024/04/20 08:28:54;;;;;;;5.18;2.30;;;8.30;99.90;;;;;;5331880;26;20679;-61
2024/04/20 08:31:20;;;;;;;6.43;2.28;;;8.50;99.90;;;;;;5335765;26;20321;-62
2024/04/20 08:33:47;;;;;;;5.63;2.30;;;8.40;99.90;;;;;;5335398;26;20013;-62
2024/04/20 08:36:14;;;;;;;7.03;2.20;;;8.50;99.90;;;;;;5328534;26;20016;-59
2024/04/20 08:38:42;;;;;;;10.50;2.72;;;8.50;99.90;;;;;;5335083;26;20083;-59
2024/04/20 08:41:17;;;;;;;6.70;2.40;;;8.40;99.90;;;;;;5326223;26;20011;-58
2024/04/20 08:43:45;;;;;;;7.38;2.47;;;8.40;99.90;;;;;;5329735;26;20024;-59
2024/04/20 08:46:14;;;;;;;5.95;2.80;;;8.40;99.90;;;;;;5328103;26;20097;-59
2024/04/20 08:48:45;;;;;;;10.27;3.10;;;8.50;99.90;;;;;;5336342;26;20036;-62
2024/04/20 08:51:13;;;;;;;6.68;2.17;;;8.60;99.90;;;;;;5334641;26;20479;-60
2024/04/20 08:53:44;;;;;;;6.50;2.60;;;8.80;99.90;;;;;;5335043;26;20020;-62
2024/04/20 08:56:11;;;;;;;7.13;2.33;;;8.90;99.90;;;;;;5330574;26;20005;-61
2024/04/20 08:58:38;;;;;;;4.30;2.15;;;8.70;99.90;;;;;;5335781;26;20005;-62
2024/04/20 09:01:11;;;;;;;5.22;2.00;;;8.60;99.90;;;;;;5330505;26;20394;-61
2024/04/20 09:03:39;;;;;;;6.70;2.22;;;8.60;99.90;;;;;;5339714;26;20008;-60
2024/04/20 09:06:09;;;;;;;4.63;1.95;;;8.40;99.90;;;;;;5331154;26;20015;-61
2024/04/20 09:08:37;;;;;;;4.43;2.13;;;8.00;99.90;;;;;;5339595;26;20001;-62
2024/04/20 09:11:04;;;;;;;5.32;1.90;;;8.30;99.90;;;;;;5336957;26;20389;-62
2024/04/20 09:13:31;;;;;;;2.95;2.22;;;8.70;99.90;;;;;;5346439;26;20021;-62
2024/04/20 09:15:58;;;;;;;3.97;1.55;;;9.00;99.90;;;;;;5330763;26;20017;-63
2024/04/20 09:18:25;;;;;;;6.13;2.10;;;9.20;99.90;;;;;;5315504;26;20023;-61
2024/04/20 09:20:56;;;;;;;7.07;2.17;;;8.80;99.90;;;;;;5332534;26;20008;-61
2024/04/20 09:23:23;;;;;;;4.68;1.67;;;8.80;99.90;;;;;;5331897;26;20009;-61
2024/04/20 09:25:53;;;;;;;5.55;2.00;;;8.60;99.90;;;;;;5341200;26;19997;-61
2024/04/20 09:28:32;;;;;;;7.03;1.92;;;8.80;99.90;;;;;;5337768;26;19997;-60
2024/04/20 09:30:59;;;;;;;4.38;1.48;;;9.40;99.90;;;;;;5339993;26;20655;-59
2024/04/20 09:33:26;;;;;;;5.35;1.75;;;9.80;99.90;;;;;;5329940;26;20001;-60
2024/04/20 09:35:54;;;;;;;3.47;1.83;;;10.00;99.90;;;;;;5329166;26;20016;-60
2024/04/20 09:38:21;;;;;;;3.08;1.10;;;10.00;99.90;;;;;;5341544;26;20020;-61
2024/04/20 09:40:51;;;;;;;4.22;1.80;;;10.00;99.90;;;;;;5339952;26;20395;-60
2024/04/20 09:43:22;;;;;;;;;;;10.00;99.90;;;;;;5329509;26;20051;-60
2024/04/20 09:45:52;;;;;;;6.05;1.90;;;9.80;99.90;;;;;;5334386;26;20374;-59
2024/04/20 09:48:26;;;;;;;3.50;1.42;;;9.90;99.90;;;;;;5339522;26;20330;-58
2024/04/20 09:51:19;;;;;;;4.03;1.40;;;10.20;99.90;;;;;;5338273;26;20476;-59
2024/04/20 09:53:51;;;;;;;2.20;1.30;;;10.30;99.90;;;;;;5337150;26;20009;-60
2024/04/20 09:56:19;;;;;;;2.95;1.60;;;10.50;99.90;;;;;;5340216;26;20009;-60
2024/04/20 09:58:47;;;;;;;2.25;1.30;;;10.60;99.90;;;;;;5332469;26;20023;-58
2024/04/20 10:01:16;;;;;;;1.63;1.50;;;10.60;99.90;;;;;;5335260;26;20019;-60
2024/04/20 10:03:44;;;;;;;3.65;1.25;;;10.40;99.90;;;;;;5335976;26;20034;-58
2024/04/20 10:06:13;;;;;;;2.28;1.63;;;10.10;99.90;;;;;;5328444;26;20009;-60
2024/04/20 10:08:42;;;;;;;4.43;1.98;;;10.00;99.90;;;;;;5329491;26;20005;-59
2024/04/20 10:11:12;;;;;;;5.47;2.00;;;10.00;99.90;;;;;;5338428;26;20004;-58
2024/04/20 10:13:40;;;;;;;5.75;2.80;;;10.00;99.90;;;;;;5338821;26;19997;-59
2024/04/20 10:16:08;;;;;;;3.70;1.80;;;10.40;99.90;;;;;;5336011;26;20330;-60
2024/04/20 10:18:35;;;;;;;3.53;1.80;;;10.50;99.90;;;;;;5333393;26;20008;-60
2024/04/20 10:21:02;;;;;;;2.75;1.40;;;10.90;99.90;;;;;;5327419;26;20001;-60
2024/04/20 10:23:29;;;;;;;3.53;1.30;;;10.70;99.90;;;;;;5331075;26;20028;-59
2024/04/20 10:25:56;;;;;;;4.30;1.88;;;10.80;99.90;;;;;;5334304;26;20465;-59
2024/04/20 10:28:31;;;;;;;2.10;1.30;;;10.60;99.90;;;;;;5337831;26;20020;-58
2024/04/20 10:30:59;;;;;;;2.75;1.20;;;10.30;99.90;;;;;;5334110;26;20005;-59
2024/04/20 10:33:34;;;;;;;2.55;1.50;;;10.20;99.90;;;;;;5329695;26;20019;-59
2024/04/20 10:36:06;;;;;;;6.90;1.50;;;10.50;99.90;;;;;;5329096;26;20446;-58
2024/04/20 10:38:34;;;;;;;3.92;1.60;;;10.50;99.90;;;;;;5333226;26;20021;-60
2024/04/20 10:41:15;;;;;;;4.53;1.80;;;10.30;99.90;;;;;;5329592;26;20012;-59
2024/04/20 10:43:44;;;;;;;2.33;1.40;;;10.70;99.90;;;;;;5327903;26;20604;-60
2024/04/20 10:46:11;;;;;;;3.22;1.42;;;11.10;99.90;;;;;;5331343;26;20075;-60
2024/04/20 10:48:42;;;;;;;4.30;1.42;;;11.60;99.90;;;;;;5331402;26;20028;-60
2024/04/20 10:51:16;;;;;;;2.60;1.60;;;11.90;99.90;;;;;;5337131;26;20009;-60
2024/04/20 10:53:43;;;;;;;3.65;1.70;;;12.00;99.90;;;;;;5335524;26;20005;-58
2024/04/20 10:56:12;;;;;;;5.55;1.45;;;12.10;99.90;;;;;;5341326;26;20091;-58
2024/04/20 10:58:42;;;;;;;3.85;1.35;;;12.00;99.90;;;;;;5329611;26;20013;-55
2024/04/20 11:01:09;;;;;;;3.45;1.30;;;11.80;99.90;;;;;;5333370;26;20005;-58
2024/04/20 11:03:38;;;;;;;3.10;1.25;;;12.00;99.90;;;;;;5326429;26;20019;-55
2024/04/20 11:06:05;;;;;;;2.10;1.10;;;12.00;99.90;;;;;;5337195;26;20016;-55
2024/04/20 11:08:32;;;;;;;2.63;1.13;;;12.30;99.90;;;;;;5334624;26;20013;-59
2024/04/20 11:11:04;;;;;;;2.67;1.30;;;12.50;99.90;;;;;;5333796;26;20385;-60
2024/04/20 11:13:32;;;;;;;4.15;1.15;;;12.40;99.90;;;;;;5331970;26;20010;-57
2024/04/20 11:15:59;;;;;;;2.75;0.90;;;12.10;99.90;;;;;;5332580;26;20051;-60
2024/04/20 11:18:26;;;;;;;1.65;1.15;;;11.60;99.90;;;;;;5323646;26;20020;-60
2024/04/20 11:20:53;;;;;;;2.03;1.20;;;11.40;99.90;;;;;;5335758;26;20029;-60
2024/04/20 11:23:22;;;;;;;1.70;1.13;;;11.30;99.90;;;;;;5331658;26;20464;-60
2024/04/20 11:25:53;;;;;;;2.42;1.35;;;10.60;99.90;;;;;;5325125;26;20009;-60
2024/04/20 11:28:24;;;;;;;1.60;1.23;;;9.30;99.90;;;;;;5328828;26;20628;-59
2024/04/20 11:30:51;;;;;;;4.30;1.65;;;7.90;99.90;;;;;;5323677;26;20023;-59
2024/04/20 11:33:18;;;;;;;3.70;1.58;;;6.90;99.90;;;;;;5324941;26;21174;-60
2024/04/20 11:35:47;;;;;;;6.32;1.90;;;6.60;99.90;;;;;;5331333;26;20034;-58
2024/04/20 11:38:15;;;;;;;5.32;2.15;;;6.50;99.90;;;;;;5328732;26;20012;-60
2024/04/20 11:40:46;;;;;;;4.18;2.50;;;6.80;99.90;;;;;;5326983;26;20388;-59
2024/04/20 11:43:24;;;;;;;4.22;2.35;;;7.00;99.90;;;;;;5328221;26;20404;-60
2024/04/20 11:45:54;;;;;;;4.47;1.90;;;7.40;99.90;;;;;;5330235;26;20064;-59
2024/04/20 11:48:28;;;;;;;3.33;2.07;;;7.80;99.90;;;;;;5326710;26;20008;-60
2024/04/20 11:51:25;;;;;;;2.20;1.27;;;8.20;99.90;;;;;;5332163;26;20878;-59
2024/04/20 11:56:44;;;;;;;2.63;1.15;;;8.80;99.90;;;;;;5325867;26;20028;-59
2024/04/20 11:59:14;;;;;;;4.97;2.70;;;8.80;99.90;;;;;;5329677;26;20017;-57
2024/04/20 12:01:42;;;;;;;2.28;1.30;;;8.60;99.90;;;;;;5339904;26;20439;-59
2024/04/20 12:04:11;;;;;;;2.13;1.10;;;8.30;99.90;;;;;;5326112;26;20029;-57
2024/04/20 12:06:39;;;;;;;1.85;1.33;;;8.10;99.90;;;;;;5325062;26;20407;-60
2024/04/20 12:09:08;;;;;;;1.42;1.15;;;8.10;99.90;;;;;;5332747;26;20734;-59
2024/04/20 12:11:35;;;;;;;3.00;1.10;;;8.20;99.90;;;;;;5327541;26;20001;-59
2024/04/20 12:14:02;;;;;;;1.00;0.90;;;8.40;99.90;;;;;;5328892;26;20001;-59
2024/04/20 12:16:29;;;;;;;3.85;1.17;;;8.60;99.90;;;;;;5330795;26;20013;-58
2024/04/20 12:18:56;;;;;;;0.82;0.82;;;8.80;99.90;;;;;;5358290;26;20004;-58
2024/04/20 12:21:23;;;;;;;1.00;0.85;;;9.00;99.90;;;;;;5327342;26;20481;-57
2024/04/20 12:23:50;;;;;;;1.73;1.33;;;9.30;99.90;;;;;;5330144;26;20015;-58
2024/04/20 12:26:16;;;;;;;4.05;1.00;;;9.70;99.90;;;;;;5336065;26;20524;-59
2024/04/20 12:28:43;;;;;;;2.67;1.05;;;10.00;99.90;;;;;;5332791;26;20078;-59
2024/04/20 12:31:10;;;;;;;2.40;1.20;;;10.30;99.90;;;;;;5330488;26;20001;-61
2024/04/20 12:33:38;;;;;;;3.20;1.40;;;10.50;99.90;;;;;;5331460;26;19997;-60
2024/04/20 12:36:15;;;;;;;2.70;1.25;;;10.60;99.90;;;;;;5331262;26;20694;-61
2024/04/20 12:38:42;;;;;;;3.00;0.88;;;10.70;99.90;;;;;;5334105;26;20023;-61
2024/04/20 12:41:08;;;;;;;4.22;2.00;;;10.90;99.90;;;;;;5332389;26;20036;-62
2024/04/20 12:43:36;;;;;;;2.83;1.35;;;10.90;99.90;;;;;;5329426;26;20013;-62
2024/04/20 12:46:03;;;;;;;0.93;0.80;;;10.80;99.90;;;;;;5332224;26;20002;-61
2024/04/20 12:48:30;;;;;;;1.20;0.95;;;10.30;99.90;;;;;;5322284;26;20041;-59
2024/04/20 12:50:58;;;;;;;3.33;0.98;;;9.80;99.90;;;;;;5336158;26;20081;-60
2024/04/20 12:53:27;;;;;;;3.38;1.23;;;9.40;99.90;;;;;;5331747;26;20009;-61
2024/04/20 12:55:54;;;;;;;4.28;1.60;;;8.60;99.90;;;;;;5328142;26;20004;-61
2024/04/20 12:58:21;;;;;;;3.70;1.58;;;8.10;99.90;;;;;;5332178;26;20051;-61
2024/04/20 13:00:48;;;;;;;5.95;1.77;;;8.10;99.90;;;;;;5332164;26;20004;-61